createdAt,value
2022-07-31T00:02:44.807Z,2.63
2022-07-31T00:05:47.284Z,2.60
2022-07-31T00:08:50.918Z,2.40
2022-07-31T00:11:53.247Z,3.03
2022-07-31T00:14:55.932Z,2.50
2022-07-31T00:18:04.648Z,2.40
2022-07-31T00:21:07.060Z,2.25
2022-07-31T00:24:09.432Z,2.95
2022-07-31T00:27:11.922Z,2.90
2022-07-31T00:30:14.595Z,2.80
2022-07-31T00:33:17.013Z,2.97
2022-07-31T00:36:19.498Z,2.63
2022-07-31T00:39:24.237Z,2.58
2022-07-31T00:42:26.842Z,2.75
2022-07-31T00:45:31.719Z,2.67
2022-07-31T00:48:34.820Z,2.83
2022-07-31T00:51:40.559Z,2.78
2022-07-31T00:54:43.003Z,2.65
2022-07-31T00:57:45.484Z,2.70
2022-07-31T01:00:48.727Z,2.88
2022-07-31T01:03:51.355Z,2.67
2022-07-31T01:06:53.888Z,2.90
2022-07-31T01:09:57.024Z,2.90
2022-07-31T01:13:08.373Z,2.75
2022-07-31T01:16:12.699Z,2.97
2022-07-31T01:19:42.041Z,3.23
2022-07-31T01:23:27.473Z,2.78
2022-07-31T01:26:55.199Z,3.00
2022-07-31T01:30:03.230Z,3.05
2022-07-31T01:33:11.660Z,2.78
2022-07-31T01:36:19.729Z,3.10
2022-07-31T01:39:22.396Z,3.08
2022-07-31T01:42:27.186Z,2.95
2022-07-31T01:45:33.191Z,2.92
2022-07-31T01:48:36.624Z,2.80
2022-07-31T01:51:44.255Z,2.93
2022-07-31T01:54:48.288Z,2.72
2022-07-31T01:57:51.133Z,2.92
2022-07-31T02:00:56.891Z,2.70
2022-07-31T02:04:01.513Z,2.95
2022-07-31T02:07:08.314Z,2.40
2022-07-31T02:10:15.102Z,2.63
2022-07-31T02:13:19.576Z,2.65
2022-07-31T02:16:23.427Z,2.47
2022-07-31T02:19:39.019Z,2.70
2022-07-31T02:22:42.653Z,2.60
2022-07-31T02:25:47.518Z,2.70
2022-07-31T02:28:51.124Z,2.70
2022-07-31T02:32:02.488Z,2.50
2022-07-31T02:35:08.654Z,2.90
2022-07-31T02:38:18.082Z,2.70
2022-07-31T02:41:27.183Z,2.30
2022-07-31T02:44:31.972Z,2.58
2022-07-31T02:47:39.154Z,2.40
2022-07-31T02:50:46.336Z,2.50
2022-07-31T02:53:49.423Z,2.50
2022-07-31T02:56:53.744Z,2.60
2022-07-31T02:59:56.160Z,2.30
2022-07-31T03:03:00.669Z,2.70
2022-07-31T03:06:03.221Z,2.88
2022-07-31T03:09:05.724Z,2.40
2022-07-31T03:12:09.727Z,2.45
2022-07-31T03:15:15.109Z,2.30
2022-07-31T03:18:18.888Z,2.63
2022-07-31T03:21:22.595Z,2.47
2022-07-31T03:24:26.063Z,2.70
2022-07-31T03:27:28.793Z,2.58
2022-07-31T03:30:31.222Z,2.35
2022-07-31T03:33:34.676Z,2.53
2022-07-31T03:36:37.000Z,2.88
2022-07-31T03:39:39.406Z,2.80
2022-07-31T03:42:47.746Z,2.50
2022-07-31T03:45:51.788Z,2.47
2022-07-31T03:48:54.366Z,2.28
2022-07-31T03:52:00.658Z,2.53
2022-07-31T03:55:03.501Z,2.70
2022-07-31T03:58:07.551Z,2.30
2022-07-31T04:01:12.198Z,2.55
2022-07-31T04:04:15.158Z,2.50
2022-07-31T04:07:31.753Z,2.58
2022-07-31T04:10:36.255Z,2.23
2022-07-31T04:13:38.892Z,2.65
2022-07-31T04:16:41.328Z,2.88
2022-07-31T04:19:43.819Z,2.70
2022-07-31T04:22:46.328Z,2.70
2022-07-31T04:26:05.153Z,2.60
2022-07-31T04:29:15.255Z,2.35
2022-07-31T04:32:17.674Z,2.50
2022-07-31T04:35:26.667Z,2.72
2022-07-31T04:38:29.621Z,2.55
2022-07-31T04:41:32.379Z,2.33
2022-07-31T04:44:34.748Z,2.45
2022-07-31T04:47:40.205Z,2.63
2022-07-31T04:50:42.622Z,2.70
2022-07-31T04:53:46.537Z,2.90
2022-07-31T04:56:49.031Z,2.50
2022-07-31T04:59:58.534Z,2.42
2022-07-31T05:03:04.209Z,2.65
2022-07-31T05:06:11.466Z,2.58
2022-07-31T05:09:19.213Z,2.80
2022-07-31T05:12:22.994Z,2.60
2022-07-31T05:15:25.456Z,2.40
2022-07-31T05:18:28.406Z,2.60
2022-07-31T05:21:53.823Z,2.45
2022-07-31T05:24:57.576Z,2.20
2022-07-31T05:28:00.198Z,2.60
2022-07-31T05:31:02.911Z,2.28
2022-07-31T05:34:05.896Z,2.28
2022-07-31T05:37:08.302Z,2.22
2022-07-31T05:40:12.905Z,2.10
2022-07-31T05:43:34.310Z,2.20
2022-07-31T05:46:47.150Z,2.00
2022-07-31T05:49:49.992Z,2.00
2022-07-31T05:52:52.334Z,1.90
2022-07-31T05:56:20.643Z,2.17
2022-07-31T05:59:25.332Z,2.10
2022-07-31T06:02:28.385Z,1.98
2022-07-31T06:05:49.292Z,2.15
2022-07-31T06:08:51.774Z,1.90
2022-07-31T06:11:55.637Z,2.00
2022-07-31T06:14:58.188Z,1.87
2022-07-31T06:18:09.476Z,2.00
2022-07-31T06:24:14.301Z,2.03
2022-07-31T06:27:33.287Z,1.90
2022-07-31T06:30:36.167Z,1.90
2022-07-31T06:33:38.818Z,1.88
2022-07-31T06:36:41.779Z,1.80
2022-07-31T06:39:55.344Z,1.90
2022-07-31T06:43:07.952Z,1.50
2022-07-31T06:46:49.604Z,1.70
2022-07-31T06:50:12.261Z,1.70
2022-07-31T06:53:21.297Z,1.40
2022-07-31T06:56:23.659Z,1.42
2022-07-31T06:59:39.353Z,1.60
2022-07-31T07:02:43.304Z,1.40
2022-07-31T07:05:45.884Z,1.70
2022-07-31T07:08:50.290Z,1.67
2022-07-31T07:11:55.020Z,1.40
2022-07-31T07:14:58.322Z,1.40
2022-07-31T07:18:01.474Z,1.40
2022-07-31T07:21:10.723Z,1.33
2022-07-31T07:24:13.926Z,1.45
2022-07-31T07:27:42.355Z,1.50
2022-07-31T07:30:45.308Z,1.55
2022-07-31T07:33:48.969Z,1.37
2022-07-31T07:36:56.468Z,1.45
2022-07-31T07:40:06.064Z,1.02
2022-07-31T07:43:09.408Z,1.25
2022-07-31T07:46:11.820Z,1.45
2022-07-31T07:49:18.278Z,1.50
2022-07-31T07:52:20.666Z,1.70
2022-07-31T07:55:56.382Z,1.60
2022-07-31T07:59:21.384Z,1.60
2022-07-31T08:02:42.848Z,1.50
2022-07-31T08:05:45.415Z,1.20
2022-07-31T08:08:48.328Z,1.20
2022-07-31T08:12:09.187Z,1.50
2022-07-31T08:15:31.138Z,1.52
2022-07-31T08:18:58.590Z,1.30
2022-07-31T08:22:02.041Z,1.20
2022-07-31T08:25:05.343Z,1.25
2022-07-31T08:28:12.414Z,1.08
2022-07-31T08:31:21.851Z,1.30
2022-07-31T08:34:42.598Z,1.15
2022-07-31T08:38:01.254Z,1.20
2022-07-31T08:41:13.847Z,1.10
2022-07-31T08:44:16.601Z,1.20
2022-07-31T08:47:21.248Z,1.08
2022-07-31T08:50:26.600Z,0.90
2022-07-31T08:53:33.112Z,1.13
2022-07-31T08:56:40.734Z,1.35
2022-07-31T08:59:44.245Z,1.20
2022-07-31T09:02:46.738Z,1.50
2022-07-31T09:05:49.236Z,1.30
2022-07-31T09:08:51.676Z,1.10
2022-07-31T09:11:55.297Z,1.45
2022-07-31T09:15:36.430Z,1.35
2022-07-31T09:18:41.002Z,1.48
2022-07-31T09:21:47.708Z,1.48
2022-07-31T09:24:50.839Z,1.50
2022-07-31T09:28:07.432Z,1.50
2022-07-31T09:31:11.838Z,1.23
2022-07-31T09:34:32.700Z,1.50
2022-07-31T09:37:47.529Z,1.70
2022-07-31T09:41:56.546Z,1.43
2022-07-31T09:44:52.498Z,1.52
2022-07-31T09:48:08.446Z,1.48
2022-07-31T09:51:15.452Z,1.30
2022-07-31T09:54:26.617Z,1.63
2022-07-31T09:57:35.950Z,1.50
2022-07-31T10:00:40.247Z,1.50
2022-07-31T10:03:43.213Z,1.30
2022-07-31T10:06:50.820Z,1.63
2022-07-31T10:09:57.012Z,1.52
2022-07-31T10:13:15.877Z,1.40
2022-07-31T10:16:19.714Z,1.52
2022-07-31T10:19:48.821Z,1.40
2022-07-31T10:23:25.445Z,1.30
2022-07-31T10:26:57.394Z,1.30
2022-07-31T10:29:51.889Z,1.10
2022-07-31T10:33:17.498Z,1.30
2022-07-31T10:36:51.688Z,1.27
2022-07-31T10:40:12.987Z,1.00
2022-07-31T10:43:29.362Z,1.20
2022-07-31T10:46:42.959Z,1.10
2022-07-31T10:50:26.169Z,0.98
2022-07-31T10:53:55.408Z,0.95
2022-07-31T10:57:25.141Z,1.20
2022-07-31T11:01:08.762Z,1.20
2022-07-31T11:04:34.061Z,1.30
2022-07-31T11:08:04.835Z,1.20
2022-07-31T11:11:35.450Z,1.10
2022-07-31T11:15:01.923Z,1.25
2022-07-31T11:18:31.146Z,1.10
2022-07-31T11:21:41.016Z,1.17
2022-07-31T11:24:56.440Z,1.52
2022-07-31T11:28:13.464Z,1.20
2022-07-31T11:31:16.022Z,1.10
2022-07-31T11:34:18.385Z,1.38
2022-07-31T11:37:34.295Z,1.10
2022-07-31T11:40:51.895Z,1.13
2022-07-31T11:43:57.627Z,1.30
2022-07-31T11:46:59.956Z,1.70
2022-07-31T11:50:03.532Z,1.40
2022-07-31T11:53:07.215Z,1.10
2022-07-31T11:56:09.801Z,1.25
2022-07-31T11:59:45.646Z,1.40
2022-07-31T12:02:34.662Z,1.20
2022-07-31T12:05:52.274Z,1.40
2022-07-31T12:08:54.852Z,1.20
2022-07-31T12:11:57.701Z,1.25
2022-07-31T12:15:00.277Z,1.20
2022-07-31T12:18:05.144Z,1.38
2022-07-31T12:21:07.637Z,1.30
2022-07-31T12:24:12.657Z,1.60
2022-07-31T12:27:17.086Z,1.20
2022-07-31T12:30:19.889Z,1.30
2022-07-31T12:33:22.297Z,1.15
2022-07-31T12:36:24.631Z,1.15
2022-07-31T12:39:53.870Z,1.40
2022-07-31T12:42:49.932Z,1.40
2022-07-31T12:45:53.023Z,1.30
2022-07-31T12:48:55.390Z,1.27
2022-07-31T12:51:57.844Z,1.40
2022-07-31T12:55:00.317Z,0.90
2022-07-31T12:58:02.841Z,1.00
2022-07-31T13:01:05.222Z,1.27
2022-07-31T13:04:18.700Z,1.75
2022-07-31T13:07:21.785Z,1.10
2022-07-31T13:10:32.456Z,1.10
2022-07-31T13:13:34.982Z,1.50
2022-07-31T13:16:37.492Z,1.20
2022-07-31T13:19:39.866Z,1.40
2022-07-31T13:22:42.402Z,1.00
2022-07-31T13:25:44.746Z,0.93
2022-07-31T13:28:47.153Z,1.45
2022-07-31T13:31:49.538Z,1.10
2022-07-31T13:35:23.920Z,1.50
2022-07-31T13:38:15.253Z,1.42
2022-07-31T13:41:34.351Z,1.10
2022-07-31T13:44:36.705Z,1.17
2022-07-31T13:47:51.406Z,1.23
2022-07-31T13:50:54.814Z,1.20
2022-07-31T13:53:57.260Z,1.40
2022-07-31T13:56:59.665Z,1.30
2022-07-31T14:00:02.120Z,1.30
2022-07-31T14:03:07.116Z,1.42
2022-07-31T14:06:09.589Z,1.55
2022-07-31T14:09:12.095Z,1.30
2022-07-31T14:12:14.620Z,1.30
2022-07-31T14:15:18.495Z,1.30
2022-07-31T14:18:22.471Z,1.40
2022-07-31T14:21:24.818Z,1.38
2022-07-31T14:24:27.261Z,1.40
2022-07-31T14:27:29.896Z,1.10
2022-07-31T14:30:33.986Z,1.60
2022-07-31T14:33:36.716Z,1.30
2022-07-31T14:36:39.176Z,1.25
2022-07-31T14:39:42.882Z,1.48
2022-07-31T14:42:45.606Z,1.50
2022-07-31T14:45:51.573Z,1.40
2022-07-31T14:48:54.619Z,1.30
2022-07-31T14:51:57.051Z,1.40
2022-07-31T14:55:00.458Z,1.17
2022-07-31T14:58:03.252Z,1.40
2022-07-31T15:01:05.678Z,1.40
2022-07-31T15:04:08.043Z,1.30
2022-07-31T15:07:34.389Z,1.23
2022-07-31T15:10:33.054Z,1.33
2022-07-31T15:13:38.828Z,1.37
2022-07-31T15:16:41.491Z,1.45
2022-07-31T15:19:44.093Z,1.60
2022-07-31T15:22:46.447Z,1.20
2022-07-31T15:25:48.856Z,1.23
2022-07-31T15:28:51.202Z,1.30
2022-07-31T15:31:53.643Z,1.30
2022-07-31T15:34:56.131Z,1.23
2022-07-31T15:37:59.542Z,1.30
2022-07-31T15:41:02.119Z,1.20
2022-07-31T15:44:04.703Z,1.17
2022-07-31T15:47:07.491Z,1.05
2022-07-31T15:50:12.543Z,1.30
2022-07-31T15:53:14.936Z,1.40
2022-07-31T15:56:17.766Z,1.30
2022-07-31T15:59:20.119Z,1.23
2022-07-31T16:02:23.805Z,1.33
2022-07-31T16:05:36.130Z,1.30
2022-07-31T16:08:41.239Z,1.50
2022-07-31T16:12:05.102Z,1.35
2022-07-31T16:15:07.780Z,1.40
2022-07-31T16:18:10.412Z,1.30
2022-07-31T16:21:21.224Z,1.35
2022-07-31T16:24:23.562Z,1.67
2022-07-31T16:27:26.032Z,1.30
2022-07-31T16:30:28.581Z,1.47
2022-07-31T16:33:30.995Z,1.50
2022-07-31T16:36:33.329Z,1.30
2022-07-31T16:39:35.811Z,1.35
2022-07-31T16:42:41.154Z,1.20
2022-07-31T16:45:43.574Z,1.30
2022-07-31T16:48:46.119Z,1.40
2022-07-31T16:51:48.681Z,1.17
2022-07-31T16:54:51.035Z,1.20
2022-07-31T16:57:53.532Z,1.60
2022-07-31T17:00:56.297Z,1.40
2022-07-31T17:04:04.002Z,1.67
2022-07-31T17:07:07.291Z,1.60
2022-07-31T17:10:10.213Z,1.65
2022-07-31T17:13:12.901Z,1.90
2022-07-31T17:16:15.407Z,1.57
2022-07-31T17:19:41.172Z,1.67
2022-07-31T17:22:42.867Z,1.67
2022-07-31T17:25:45.972Z,1.77
2022-07-31T17:28:51.955Z,1.40
2022-07-31T17:31:54.304Z,1.30
2022-07-31T17:34:56.719Z,1.63
2022-07-31T17:37:59.059Z,1.60
2022-07-31T17:41:03.179Z,1.50
2022-07-31T17:44:05.509Z,1.60
2022-07-31T17:47:09.873Z,1.30
2022-07-31T17:50:12.632Z,1.35
2022-07-31T17:53:15.902Z,1.10
2022-07-31T17:56:18.693Z,1.17
2022-07-31T17:59:21.319Z,1.40
2022-07-31T18:02:23.797Z,1.30
2022-07-31T18:05:26.316Z,1.48
2022-07-31T18:08:29.525Z,1.30
2022-07-31T18:11:32.093Z,1.20
2022-07-31T18:14:34.495Z,1.50
2022-07-31T18:17:41.472Z,1.63
2022-07-31T18:20:45.701Z,1.40
2022-07-31T18:23:48.136Z,1.40
2022-07-31T18:26:53.847Z,1.58
2022-07-31T18:29:59.634Z,1.35
2022-07-31T18:33:02.425Z,1.40
2022-07-31T18:36:05.152Z,1.50
2022-07-31T18:39:07.836Z,1.48
2022-07-31T18:42:10.345Z,1.30
2022-07-31T18:45:12.751Z,1.60
2022-07-31T18:48:15.190Z,1.50
2022-07-31T18:51:17.625Z,1.30
2022-07-31T18:54:20.202Z,1.40
2022-07-31T18:57:22.608Z,1.30
2022-07-31T19:00:25.091Z,1.60
2022-07-31T19:03:29.790Z,1.40
2022-07-31T19:06:32.262Z,1.55
2022-07-31T19:09:34.654Z,1.55
2022-07-31T19:12:37.097Z,1.50
2022-07-31T19:15:39.499Z,1.50
2022-07-31T19:18:41.990Z,1.40
2022-07-31T19:21:46.242Z,1.58
2022-07-31T19:24:49.584Z,1.60
2022-07-31T19:27:51.965Z,1.60
2022-07-31T19:30:54.743Z,1.58
2022-07-31T19:33:57.070Z,1.50
2022-07-31T19:36:59.527Z,1.60
2022-07-31T19:40:01.924Z,1.50
2022-07-31T19:43:04.586Z,1.55
2022-07-31T19:46:11.204Z,1.65
2022-07-31T19:49:15.138Z,1.40
2022-07-31T19:52:17.571Z,1.40
2022-07-31T19:55:20.088Z,1.40
2022-07-31T19:58:22.449Z,1.60
2022-07-31T20:01:24.882Z,1.30
2022-07-31T20:04:27.236Z,1.53
2022-07-31T20:07:32.947Z,1.48
2022-07-31T20:10:35.544Z,1.45
2022-07-31T20:13:38.712Z,1.50
2022-07-31T20:16:41.299Z,1.90
2022-07-31T20:20:14.410Z,1.50
2022-07-31T20:23:06.909Z,1.52
2022-07-31T20:26:11.797Z,1.70
2022-07-31T20:29:14.208Z,1.73
2022-07-31T20:32:16.643Z,1.70
2022-07-31T20:35:32.905Z,1.60
2022-07-31T20:38:48.232Z,1.63
2022-07-31T20:41:50.763Z,1.60
2022-07-31T20:44:53.182Z,1.90
2022-07-31T20:47:56.821Z,1.80
2022-07-31T20:51:00.602Z,1.80
2022-07-31T20:54:03.222Z,1.80
2022-07-31T20:57:05.785Z,2.00
2022-07-31T21:00:08.989Z,2.08
2022-07-31T21:03:11.448Z,1.65
2022-07-31T21:06:13.858Z,1.70
2022-07-31T21:09:16.279Z,1.90
2022-07-31T21:12:18.619Z,1.70
2022-07-31T21:15:41.626Z,1.80
2022-07-31T21:18:43.843Z,1.60
2022-07-31T21:21:46.285Z,1.63
2022-07-31T21:24:49.368Z,1.90
2022-07-31T21:27:51.992Z,2.00
2022-07-31T21:30:56.398Z,1.80
2022-07-31T21:33:59.298Z,1.55
2022-07-31T21:37:01.776Z,1.73
2022-07-31T21:40:05.383Z,1.73
2022-07-31T21:43:18.754Z,1.42
2022-07-31T21:46:27.015Z,1.85
2022-07-31T21:49:37.398Z,1.90
2022-07-31T21:52:39.895Z,1.50
2022-07-31T21:55:42.313Z,1.70
2022-07-31T21:58:45.078Z,1.63
2022-07-31T22:01:58.112Z,1.40
2022-07-31T22:05:23.715Z,1.80
2022-07-31T22:08:26.198Z,1.57
2022-07-31T22:11:30.537Z,1.90
2022-07-31T22:14:32.880Z,1.77
2022-07-31T22:17:35.306Z,1.60
2022-07-31T22:20:37.924Z,1.70
2022-07-31T22:23:40.597Z,1.60
2022-07-31T22:27:08.855Z,1.88
2022-07-31T22:30:12.520Z,1.60
2022-07-31T22:33:22.277Z,1.58
2022-07-31T22:36:25.796Z,1.75
2022-07-31T22:39:28.516Z,1.63
2022-07-31T22:42:30.985Z,1.70
2022-07-31T22:45:33.421Z,1.80
2022-07-31T22:48:36.723Z,2.20
2022-07-31T22:51:41.604Z,1.73
2022-07-31T22:54:46.451Z,2.07
2022-07-31T22:57:48.897Z,2.03
2022-07-31T23:00:51.467Z,2.05
2022-07-31T23:03:53.994Z,2.08
2022-07-31T23:06:56.501Z,2.08
2022-07-31T23:09:58.971Z,2.00
2022-07-31T23:13:01.442Z,1.90
2022-07-31T23:16:03.917Z,1.95
2022-07-31T23:19:06.804Z,2.33
2022-07-31T23:22:09.149Z,2.10
2022-07-31T23:25:13.022Z,2.00
2022-07-31T23:28:15.390Z,2.10
2022-07-31T23:31:18.138Z,2.15
2022-07-31T23:34:20.518Z,1.90
2022-07-31T23:37:22.941Z,1.90
2022-07-31T23:40:25.276Z,2.13
2022-07-31T23:43:27.759Z,2.03
2022-07-31T23:46:30.104Z,1.95
2022-07-31T23:49:33.064Z,1.90
2022-07-31T23:52:35.389Z,1.73
2022-07-31T23:55:39.133Z,1.63
2022-07-31T23:58:45.330Z,2.00
